createdAt,value
2022-10-30T05:25:01.471Z,0.1
2022-10-30T05:27:01.104Z,0.2
2022-10-30T05:28:01.476Z,0.3
2022-10-30T05:31:01.088Z,0.6
2022-10-30T05:32:01.167Z,0.7
2022-10-30T05:33:01.328Z,0.9
2022-10-30T05:34:01.850Z,1.0
2022-10-30T05:36:01.107Z,1.4
2022-10-30T05:37:01.174Z,1.7
2022-10-30T05:38:01.106Z,2.1
2022-10-30T05:39:01.111Z,2.4
2022-10-30T05:40:01.582Z,2.9
2022-10-30T05:41:01.384Z,3.3
2022-10-30T05:42:01.113Z,4.1
2022-10-30T05:43:01.448Z,4.8
2022-10-30T05:44:01.117Z,5.5
2022-10-30T05:46:01.106Z,7.8
2022-10-30T05:47:01.132Z,9.6
2022-10-30T05:48:01.335Z,11.4
2022-10-30T05:49:01.360Z,13.2
2022-10-30T05:50:01.580Z,15.9
2022-10-30T05:51:01.111Z,18.7
2022-10-30T05:52:01.112Z,22.9
2022-10-30T05:53:01.115Z,27.2
2022-10-30T05:54:01.115Z,31.5
2022-10-30T05:56:01.361Z,45.1
2022-10-30T05:57:01.384Z,55.9
2022-10-30T05:58:01.439Z,66.7
2022-10-30T05:59:01.380Z,77.5
2022-10-30T06:00:03.555Z,93.6
2022-10-30T06:01:01.115Z,109.7
2022-10-30T06:02:01.162Z,133.1
2022-10-30T06:03:01.533Z,156.5
2022-10-30T06:04:01.114Z,179.9
2022-10-30T06:05:01.906Z,212.5
2022-10-30T06:06:01.113Z,245.1
2022-10-30T06:07:01.111Z,290.6
2022-10-30T06:08:01.121Z,336.1
2022-10-30T06:09:01.118Z,381.5
2022-10-30T06:10:01.331Z,440.9
2022-10-30T06:11:01.413Z,500.2
2022-10-30T06:12:01.113Z,578.0
2022-10-30T06:13:01.680Z,655.8
2022-10-30T06:14:01.369Z,733.6
2022-10-30T06:16:01.113Z,932.8
2022-10-30T06:17:01.193Z,1056.1
2022-10-30T06:18:01.379Z,1179.3
2022-10-30T06:19:02.150Z,1302.6
2022-10-30T06:20:08.542Z,1453.3
2022-10-30T06:21:01.123Z,1604.1
2022-10-30T06:22:01.115Z,1785.3
2022-10-30T06:23:01.395Z,1966.6
2022-10-30T06:24:01.120Z,2147.9
2022-10-30T06:25:10.426Z,2368.0
2022-10-30T06:27:01.107Z,2651.4
2022-10-30T06:28:01.434Z,2912.1
2022-10-30T06:29:01.126Z,3172.7
2022-10-30T06:30:01.167Z,3504.9
2022-10-30T06:31:01.983Z,3809.4
2022-10-30T06:32:03.750Z,4193.9
2022-10-30T06:33:01.578Z,4546.9
2022-10-30T06:34:01.107Z,4899.8
2022-10-30T06:35:01.218Z,5336.1
2022-10-30T06:36:01.611Z,5734.7
2022-10-30T06:37:01.133Z,6221.1
2022-10-30T06:38:01.114Z,6662.4
2022-10-30T06:39:01.109Z,7103.7
2022-10-30T06:40:01.105Z,7642.7
2022-10-30T06:41:01.328Z,8126.3
2022-10-30T06:42:01.115Z,8647.6
2022-10-30T06:43:01.540Z,9168.9
2022-10-30T06:44:01.110Z,9690.3
2022-10-30T06:45:05.449Z,10239.5
2022-10-30T06:46:02.273Z,10788.7
2022-10-30T06:47:01.101Z,11356.1
2022-10-30T06:48:01.622Z,11923.5
2022-10-30T06:49:01.112Z,12490.9
2022-10-30T06:50:01.107Z,13069.5
2022-10-30T06:51:01.941Z,13648.1
2022-10-30T06:52:01.105Z,14234.3
2022-10-30T06:53:01.482Z,14820.5
2022-10-30T06:54:01.105Z,15406.7
2022-10-30T06:55:01.373Z,15983.2
2022-10-30T06:56:01.336Z,16559.7
2022-10-30T06:57:01.105Z,17108.7
2022-10-30T06:58:01.422Z,17657.7
2022-10-30T06:59:01.110Z,18206.7
2022-10-30T07:00:01.111Z,18722.5
2022-10-30T07:01:06.305Z,19238.3
2022-10-30T07:02:01.770Z,19662.2
2022-10-30T07:03:01.698Z,20086.1
2022-10-30T07:04:01.106Z,20509.9
2022-10-30T07:05:01.121Z,20846.0
2022-10-30T07:06:02.694Z,21182.1
2022-10-30T07:07:01.109Z,21399.8
2022-10-30T07:08:01.120Z,21617.5
2022-10-30T07:09:01.183Z,21835.3
2022-10-30T07:10:01.111Z,21927.9
2022-10-30T07:11:01.335Z,22020.6
2022-10-30T07:12:05.843Z,22040.6
2022-10-30T07:13:01.464Z,22060.6
2022-10-30T07:14:01.108Z,22080.6
2022-10-30T07:15:01.118Z,22092.1
2022-10-30T07:16:07.209Z,22103.7
2022-10-30T07:17:01.135Z,22199.9
2022-10-30T07:18:01.395Z,22296.1
2022-10-30T07:19:03.594Z,22392.3
2022-10-30T07:20:01.109Z,22572.5
2022-10-30T07:21:01.432Z,22752.8
2022-10-30T07:22:01.117Z,23106.9
2022-10-30T07:23:01.114Z,23461.1
2022-10-30T07:24:01.116Z,23815.2
2022-10-30T07:25:01.180Z,24438.8
2022-10-30T07:26:05.759Z,25062.4
2022-10-30T07:27:01.184Z,25939.4
2022-10-30T07:28:01.823Z,26816.4
2022-10-30T07:29:01.180Z,27693.4
2022-10-30T07:30:01.183Z,28841.1
2022-10-30T07:31:01.522Z,29988.7
2022-10-30T07:32:03.472Z,31397.9
2022-10-30T07:33:01.816Z,32807.1
2022-10-30T07:34:01.177Z,34216.3
2022-10-30T07:35:01.186Z,36028.7
2022-10-30T07:36:02.915Z,37841.0
2022-10-30T07:37:01.117Z,39846.3
2022-10-30T07:38:01.411Z,41851.7
2022-10-30T07:39:01.193Z,43857.0
2022-10-30T07:40:01.114Z,45823.0
2022-10-30T07:41:02.117Z,47789.0
2022-10-30T07:42:01.117Z,49840.6
2022-10-30T07:44:01.168Z,51892.2
2022-10-30T07:45:01.249Z,53943.8
2022-10-30T07:46:02.253Z,55667.1
2022-10-30T07:47:01.431Z,57390.3
2022-10-30T07:48:01.278Z,58761.1
2022-10-30T07:49:01.131Z,60131.9
2022-10-30T07:50:01.107Z,61502.7
2022-10-30T07:51:02.839Z,62379.6
2022-10-30T07:52:01.110Z,63256.5
2022-10-30T07:53:01.106Z,63789.4
2022-10-30T07:54:01.102Z,64322.3
2022-10-30T07:55:01.107Z,64855.3
2022-10-30T07:56:02.229Z,65195.1
2022-10-30T07:57:01.107Z,65535.0
2022-10-30T08:00:03.779Z,65535.0
2022-10-30T08:15:01.197Z,65535.0
2022-10-30T08:30:01.455Z,65535.0
2022-10-30T08:45:01.205Z,65535.0
2022-10-30T09:00:04.808Z,65535.0
2022-10-30T09:15:01.167Z,65535.0
2022-10-30T09:30:01.162Z,65535.0
2022-10-30T10:15:01.244Z,65535.0
2022-10-30T10:30:01.648Z,65535.0
2022-10-30T10:45:01.148Z,65535.0
2022-10-30T11:15:01.356Z,65535.0
2022-10-30T11:30:02.322Z,65535.0
2022-10-30T12:15:01.456Z,65535.0
2022-10-30T12:30:10.870Z,65535.0
2022-10-30T12:45:01.472Z,65535.0
2022-10-30T13:00:03.490Z,65535.0
2022-10-30T13:27:00.428Z,65503.3
2022-10-30T13:28:00.462Z,65471.5
2022-10-30T13:29:00.400Z,65439.8
2022-10-30T13:30:06.047Z,65328.1
2022-10-30T13:31:00.397Z,65216.5
2022-10-30T13:32:00.397Z,65104.8
2022-10-30T13:33:00.786Z,64937.9
2022-10-30T13:34:00.393Z,64771.1
2022-10-30T13:35:00.915Z,64519.2
2022-10-30T13:36:00.397Z,64267.3
2022-10-30T13:37:00.395Z,64015.5
2022-10-30T13:38:00.735Z,63774.5
2022-10-30T13:39:00.395Z,63533.6
2022-10-30T13:40:01.106Z,63239.7
2022-10-30T13:41:00.458Z,62945.9
2022-10-30T13:42:00.395Z,62683.7
2022-10-30T13:43:00.685Z,62346.1
2022-10-30T13:44:00.399Z,62008.5
2022-10-30T13:45:01.551Z,61603.2
2022-10-30T13:46:00.461Z,61197.9
2022-10-30T13:47:00.671Z,60792.5
2022-10-30T13:48:00.847Z,60661.1
2022-10-30T13:49:00.393Z,60529.7
2022-10-30T13:50:01.013Z,60097.7
2022-10-30T13:51:00.397Z,59665.6
2022-10-30T13:52:00.395Z,59233.5
2022-10-30T13:53:00.573Z,58696.2
2022-10-30T13:54:00.404Z,58158.9
2022-10-30T13:55:02.392Z,57516.7
2022-10-30T13:56:00.399Z,56874.6
2022-10-30T13:57:00.403Z,56232.5
2022-10-30T13:58:00.469Z,55669.5
2022-10-30T13:59:00.429Z,55106.6
2022-10-30T14:00:03.780Z,54506.7
2022-10-30T14:01:00.753Z,53906.9
2022-10-30T14:02:01.520Z,53307.0
2022-10-30T14:03:00.795Z,52395.3
2022-10-30T14:04:00.679Z,51483.7
2022-10-30T14:05:00.613Z,50874.5
2022-10-30T14:06:00.411Z,50265.4
2022-10-30T14:07:00.405Z,49656.3
2022-10-30T14:08:05.268Z,49018.5
2022-10-30T14:09:00.439Z,48380.8
2022-10-30T14:10:00.614Z,47705.5
2022-10-30T14:11:00.786Z,47030.3
2022-10-30T14:12:00.443Z,46355.0
2022-10-30T14:13:00.632Z,45750.3
2022-10-30T14:14:00.398Z,45145.7
2022-10-30T14:16:00.679Z,43913.0
2022-10-30T14:17:00.404Z,43296.7
2022-10-30T14:18:00.410Z,42649.4
2022-10-30T14:19:00.672Z,42002.1
2022-10-30T14:20:00.615Z,41220.7
2022-10-30T14:21:00.406Z,40439.3
2022-10-30T14:22:00.398Z,39657.9
2022-10-30T14:23:00.800Z,38780.7
2022-10-30T14:24:00.404Z,37903.4
2022-10-30T14:25:00.914Z,37062.5
2022-10-30T14:26:00.405Z,36221.5
2022-10-30T14:27:00.703Z,35380.6
2022-10-30T14:28:00.892Z,34312.7
2022-10-30T14:29:00.674Z,33244.9
2022-10-30T14:31:00.433Z,31263.5
2022-10-30T14:32:00.406Z,30272.9
2022-10-30T14:33:00.402Z,29460.3
2022-10-30T14:34:00.410Z,28647.8
2022-10-30T14:35:00.878Z,27974.5
2022-10-30T14:36:00.665Z,27301.1
2022-10-30T14:37:01.566Z,26627.8
2022-10-30T14:38:00.765Z,26187.3
2022-10-30T14:39:00.407Z,25746.7
2022-10-30T14:41:00.407Z,25138.5
2022-10-30T14:42:00.467Z,24834.3
2022-10-30T14:43:00.951Z,24686.5
2022-10-30T14:44:00.414Z,24538.6
2022-10-30T14:45:01.046Z,24511.7
2022-10-30T14:46:00.408Z,24484.9
2022-10-30T14:47:01.602Z,24458.0
2022-10-30T14:48:00.407Z,24296.3
2022-10-30T14:49:00.578Z,24134.5
2022-10-30T14:50:06.959Z,23958.7
2022-10-30T14:51:00.419Z,23782.9
2022-10-30T14:52:00.688Z,23607.1
2022-10-30T14:53:00.955Z,23365.7
2022-10-30T14:54:00.493Z,23124.3
2022-10-30T14:56:00.411Z,22497.8
2022-10-30T14:57:00.408Z,22184.5
2022-10-30T14:58:00.757Z,21774.7
2022-10-30T14:59:00.411Z,21364.8
2022-10-30T15:00:03.462Z,20865.6
2022-10-30T15:01:00.482Z,20366.4
2022-10-30T15:02:00.796Z,19867.2
2022-10-30T15:03:00.443Z,19382.9
2022-10-30T15:04:00.420Z,18898.7
2022-10-30T15:05:10.556Z,18453.4
2022-10-30T15:06:00.446Z,18008.1
2022-10-30T15:07:00.678Z,17562.9
2022-10-30T15:08:00.719Z,17120.6
2022-10-30T15:09:00.411Z,16678.3
2022-10-30T15:10:01.057Z,16275.5
2022-10-30T15:11:00.440Z,15872.7
2022-10-30T15:12:01.662Z,15469.9
2022-10-30T15:13:02.160Z,15104.7
2022-10-30T15:14:00.416Z,14739.5
2022-10-30T15:16:00.443Z,14089.7
2022-10-30T15:17:00.411Z,13764.7
2022-10-30T15:18:00.414Z,13460.9
2022-10-30T15:19:00.720Z,13157.0
2022-10-30T15:21:00.438Z,12566.9
2022-10-30T15:22:00.412Z,12271.8
2022-10-30T15:23:00.653Z,11981.8
2022-10-30T15:24:00.814Z,11691.8
2022-10-30T15:25:01.533Z,11406.3
2022-10-30T15:26:03.689Z,11120.7
2022-10-30T15:27:00.414Z,10835.2
2022-10-30T15:28:01.133Z,10550.3
2022-10-30T15:29:00.513Z,10265.5
2022-10-30T15:31:00.462Z,9675.5
2022-10-30T15:32:00.421Z,9380.5
2022-10-30T15:33:00.778Z,9070.6
2022-10-30T15:34:00.482Z,8760.7
2022-10-30T15:35:02.732Z,8435.0
2022-10-30T15:36:00.450Z,8109.3
2022-10-30T15:37:00.425Z,7783.5
2022-10-30T15:38:00.420Z,7442.7
2022-10-30T15:39:00.421Z,7101.9
2022-10-30T15:40:02.137Z,6760.0
2022-10-30T15:41:00.485Z,6418.1
2022-10-30T15:42:00.431Z,6076.1
2022-10-30T15:43:00.921Z,5744.6
2022-10-30T15:44:00.488Z,5413.1
2022-10-30T15:46:00.468Z,4790.5
2022-10-30T15:47:00.415Z,4479.3
2022-10-30T15:48:05.444Z,4199.3
2022-10-30T15:49:00.415Z,3919.4
2022-10-30T15:50:12.175Z,3675.2
2022-10-30T15:51:00.856Z,3431.0
2022-10-30T15:52:00.438Z,3186.8
2022-10-30T15:53:00.423Z,2978.3
2022-10-30T15:54:00.424Z,2769.7
2022-10-30T15:55:01.946Z,2591.5
2022-10-30T15:56:00.450Z,2413.2
2022-10-30T15:57:31.683Z,2234.9
2022-10-30T15:58:03.765Z,2082.1
2022-10-30T15:59:00.441Z,1929.2
2022-10-30T16:00:03.431Z,1796.9
2022-10-30T16:01:00.538Z,1664.5
2022-10-30T16:02:00.660Z,1532.2
2022-10-30T16:03:00.630Z,1413.9
2022-10-30T16:04:00.424Z,1295.7
2022-10-30T16:05:00.640Z,1190.2
2022-10-30T16:06:00.749Z,1084.7
2022-10-30T16:07:01.454Z,979.3
2022-10-30T16:08:00.491Z,887.7
2022-10-30T16:09:00.490Z,796.1
2022-10-30T16:10:01.185Z,719.3
2022-10-30T16:11:00.660Z,642.6
2022-10-30T16:12:00.425Z,565.9
2022-10-30T16:13:00.856Z,503.4
2022-10-30T16:14:00.439Z,440.9
2022-10-30T16:15:01.215Z,391.6
2022-10-30T16:16:00.458Z,342.3
2022-10-30T16:17:00.420Z,292.9
2022-10-30T16:18:00.601Z,255.6
2022-10-30T16:19:00.428Z,218.3
2022-10-30T16:20:01.426Z,191.2
2022-10-30T16:21:00.459Z,164.1
2022-10-30T16:22:00.452Z,137.1
2022-10-30T16:23:00.430Z,118.1
2022-10-30T16:24:00.503Z,99.2
2022-10-30T16:25:01.389Z,86.2
2022-10-30T16:26:00.469Z,73.2
2022-10-30T16:27:01.455Z,60.2
2022-10-30T16:28:00.770Z,51.4
2022-10-30T16:29:00.442Z,42.6
2022-10-30T16:31:00.454Z,31.1
2022-10-30T16:32:00.603Z,25.4
2022-10-30T16:33:00.701Z,21.7
2022-10-30T16:34:00.461Z,18.1
2022-10-30T16:35:00.736Z,15.7
2022-10-30T16:36:01.801Z,13.3
2022-10-30T16:37:00.567Z,10.9
2022-10-30T16:38:00.450Z,9.3
2022-10-30T16:39:00.437Z,7.8
2022-10-30T16:40:01.281Z,6.7
2022-10-30T16:41:00.477Z,5.7
2022-10-30T16:42:00.567Z,4.6
2022-10-30T16:43:01.083Z,3.9
2022-10-30T16:44:00.438Z,3.3
2022-10-30T16:45:01.721Z,2.9
2022-10-30T16:46:00.496Z,2.5
2022-10-30T16:47:00.489Z,2.1
2022-10-30T16:48:04.495Z,1.7
2022-10-30T16:49:00.495Z,1.4
2022-10-30T16:50:00.667Z,1.2
2022-10-30T16:51:00.751Z,1.0
2022-10-30T16:52:00.557Z,0.8
2022-10-30T16:53:00.819Z,0.7
2022-10-30T16:54:00.466Z,0.5
2022-10-30T16:56:00.670Z,0.4
2022-10-30T16:57:00.501Z,0.3
2022-10-30T16:59:00.429Z,0.2
2022-10-30T17:00:01.339Z,0.1
